• Join FlightAware (Why Join?)
  • Login
  • US Flag 
02:40PM EDT


 

Airport Tracker/Info


-or-


 

Live Flight TrackerFlight Track Log ✈ TAM3763 ✈ 24-Jun-2013 ✈ SBSP / CGH - SBLO / LDB

Flight Track Log - Related Links

Times and Time Zones

All times are in EDT time to prevent confusion due to time zone crossing. See the TAM3763 flight status page for this flight to view local times or setup timezone preferences in your user account.

Time Position Orientation Groundspeed Altitude Reporting Facility
EDT Latitude Longitude Course Direction KTS MPH feet Rate Location/Type
05:33AM -23.6500 -46.6420 163° South 175 201 3,400  Level FlightAware
05:34AM -23.6770 -46.6610 213° Southwest 235 270 4,000 1,140 Climbing FlightAware
05:34AM -23.6800 -46.6750 257° West 258 297 4,300 1,920 Climbing FlightAware
05:34AM -23.6750 -46.7130 278° West 285 328 5,300 3,300 Climbing FlightAware
05:35AM -23.6660 -46.7520 284° West 268 308 7,400 4,080 Climbing FlightAware
05:35AM -23.6610 -46.7720 285° West 268 308 8,300 3,000 Climbing FlightAware
05:36AM -23.6510 -46.8100 286° West 279 321 9,600 2,400 Climbing FlightAware
05:36AM -23.6380 -46.8630 285° West 300 345 11,000 2,760 Climbing FlightAware
05:37AM -23.6200 -46.9310 286° West 302 348 13,500 3,240 Climbing FlightAware
05:38AM -23.6050 -46.9920 285° West 289 333 15,800 2,160 Climbing FlightAware
05:38AM -23.5890 -47.0570 285° West 331 381 16,600 1,320 Climbing FlightAware
05:39AM -23.5710 -47.1280 285° West 353 406 17,700 1,860 Climbing FlightAware
05:40AM -23.5540 -47.1940 286° West 359 413 19,100 2,160 Climbing FlightAware
05:40AM -23.5340 -47.2700 286° West 360 414 20,700 1,980 Climbing FlightAware
05:41AM -23.5170 -47.3410 285° West 367 422 21,900 1,800 Climbing FlightAware
05:42AM -23.5060 -47.4250 278° West 368 423 23,300 1,920 Climbing FlightAware
05:42AM -23.5060 -47.4950 270° West 366 421 24,600 1,740 Climbing FlightAware
05:43AM -23.5050 -47.5830 271° West 372 428 25,800 1,440 Climbing FlightAware
05:44AM -23.5040 -47.6550 271° West 377 434 26,700 1,500 Climbing FlightAware
05:45AM -23.5030 -47.7400 271° West 377 434 27,900 1,680 Climbing FlightAware
05:45AM -23.5020 -47.8120 271° West 374 430 29,100 1,680 Climbing FlightAware
05:46AM -23.5010 -47.8960 271° West 372 428 30,200 1,440 Climbing FlightAware
05:47AM -23.5000 -47.9730 271° West 372 428 31,200 1,200 Climbing FlightAware
05:47AM -23.4990 -48.0540 271° West 368 423 32,000 540 Climbing FlightAware
05:48AM -23.4980 -48.1280 271° West 361 415 32,000  Level FlightAware
05:49AM -23.4970 -48.2060 271° West 371 427 32,000  Level FlightAware
05:49AM -23.4960 -48.2660 271° West 373 429 32,000 -480 Level FlightAware
05:50AM -23.4940 -48.3480 272° West 354 407 31,400 -900 Descending FlightAware
05:51AM -23.4930 -48.4120 271° West 341 392 30,800 -960 Descending FlightAware
05:52AM -23.4920 -48.4930 271° West 349 402 30,100 -960 Descending FlightAware
05:52AM -23.4910 -48.5660 271° West 353 406 29,400 -1,020 Descending FlightAware
05:53AM -23.4890 -48.6470 272° West 355 409 28,700 -960 Descending FlightAware
05:54AM -23.4880 -48.7160 271° West 358 412 28,100 -540 Descending FlightAware
05:54AM -23.4870 -48.7880 271° West 363 418 28,000 -120 Descending FlightAware
05:55AM -23.4850 -48.8670 272° West 361 415 28,000  Level FlightAware
05:56AM -23.4840 -48.9480 271° West 358 412 28,000  Level FlightAware
05:56AM -23.4820 -49.0270 272° West 359 413 28,000  Level FlightAware
05:57AM -23.4810 -49.0990 271° West 359 413 28,000  Level FlightAware
05:58AM -23.4790 -49.1680 272° West 358 412 28,000  Level FlightAware
05:59AM -23.4730 -49.2500 275° West 359 413 28,000  Level FlightAware
05:59AM -23.4680 -49.3220 274° West 361 415 28,000  Level FlightAware
06:00AM -23.4620 -49.4050 274° West 362 417 28,000  Level FlightAware
06:01AM -23.4570 -49.4780 274° West 361 415 28,000  Level FlightAware
06:01AM -23.4520 -49.5500 274° West 357 411 28,000 -420 Level FlightAware
06:02AM -23.4470 -49.6270 274° West 341 392 27,500 -1,200 Descending FlightAware
06:03AM -23.4420 -49.6990 274° West 333 383 26,300 -1,800 Descending FlightAware
06:03AM -23.4380 -49.7660 274° West 324 373 25,000 -1,800 Descending FlightAware
06:04AM -23.4330 -49.8320 275° West 317 365 23,900 -1,740 Descending FlightAware
06:05AM -23.4290 -49.9020 274° West 311 358 22,600 -1,800 Descending FlightAware
06:05AM -23.4240 -49.9640 275° West 308 354 21,400 -1,800 Descending FlightAware
06:06AM -23.4200 -50.0310 274° West 305 351 20,100 -1,800 Descending FlightAware
06:07AM -23.4150 -50.0960 275° West 305 351 18,900 -1,740 Descending FlightAware
06:07AM -23.4110 -50.1480 275° West 306 352 17,900 -1,680 Descending FlightAware
06:08AM -23.4060 -50.2130 275° West 308 354 16,800 -1,740 Descending FlightAware
06:09AM -23.4010 -50.2820 275° West 309 356 15,500 -1,800 Descending FlightAware
06:10AM -23.3970 -50.3420 274° West 309 356 14,300 -1,740 Descending FlightAware
06:10AM -23.3930 -50.4060 274° West 309 356 13,200 -1,740 Descending FlightAware
06:11AM -23.3880 -50.4750 275° West 307 353 11,900 -1,740 Descending FlightAware
06:12AM -23.3830 -50.5360 275° West 303 349 10,800 -1,500 Descending FlightAware
06:12AM -23.3790 -50.5970 274° West 291 335 9,900 -1,200 Descending FlightAware
06:13AM -23.3760 -50.6380 275° West 274 315 9,400 -1,320 Descending FlightAware
06:13AM -23.3730 -50.6800 274° West 271 312 8,600 -1,680 Descending FlightAware
06:14AM -23.3700 -50.7170 275° West 269 310 7,800 -1,740 Descending FlightAware
06:14AM -23.3670 -50.7550 275° West 269 310 7,000 -1,800 Descending FlightAware
06:14AM -23.3660 -50.7630 278° West 270 311 6,800 -1,800 Descending FlightAware
06:15AM -23.3630 -50.8010 275° West 272 313 6,000 -1,380 Descending FlightAware
06:15AM -23.3600 -50.8430 274° West 273 314 5,500 -1,140 Descending FlightAware
06:16AM -23.3570 -50.8810 275° West 273 314 4,900 -1,320 Descending FlightAware
06:16AM -23.3550 -50.9190 273° West 274 315 4,300 -1,200 Descending FlightAware
06:17AM -23.3490 -50.9580 280° West 274 315 3,800 -1,080 Descending FlightAware
06:17AM -23.3430 -50.9970 280° West 282 325 3,300 -540 Descending FlightAware
06:18AM -23.3330 -51.0350 286° West 251 289 3,300  Level FlightAware
06:18AM -23.3220 -51.0670 291° West 233 268 3,300  Level FlightAware
06:19AM -23.3140 -51.0920 289° West 216 249 3,300  Level FlightAware
06:19AM -23.3050 -51.1180 291° West 211 243 3,300  Level FlightAware
06:20AM -23.2960 -51.1470 289° West 209 241 3,300  Level FlightAware
06:20AM -23.2860 -51.1780 289° West 210 242 3,300 -120 Level FlightAware
06:20AM -23.2970 -51.2010 242° Southwest 182 209 3,200 -540 Descending FlightAware
06:21AM -23.3160 -51.1840 141° Southeast 127 146 2,700 -780 Descending FlightAware
06:22AM -23.3210 -51.1670 108° East 128 147 2,300 -780 Descending FlightAware
06:22AM -23.3270 -51.1500 111° Southeast 128 147 2,000 -660 Descending FlightAware
06:23AM -23.3330 -51.1330 111° Southeast 126 145 1,700 -660 Descending FlightAware
06:23AM -23.3340 -51.1280 102° East 62 71 -8,520 Descending FlightAware
06:23AM -23.3350 -51.1250 110° East 33 38  Level FlightAware
06:24AM -23.3340 -51.1260 317° Northwest 30 35  Level FlightAware
06:24AM -23.3340 -51.1270 270° West 18 21  Level FlightAware
06:24AM -23.3330 -51.1300 290° West 23 26  Level FlightAware
06:25AM -23.3320 -51.1330 290° West 17 20  Level FlightAware
06:25AM -23.3310 -51.1340 317° Northwest 17 20  Level FlightAware
06:26AM -23.3310 -51.1360 270° West 17 20  Level FlightAware
06:26AM -23.3300 -51.1380 299° West 27 31  Level FlightAware
06:26AM -23.3290 -51.1380 360° North 11 13  Level FlightAware
06:29AM -23.3336 -51.1301 122° Southeast  Level Estimated
06:30AM -23.3336 -51.1301 340° North  Level Estimated
06:31AM -23.3336 -51.1301 200° South  Level Estimated
06:32AM -23.3336 -51.1301 340° North  Level Estimated
06:33AM -23.3336 -51.1301 200° South  Level Estimated
06:34AM -23.3336 -51.1301 340° North  Level Estimated
06:35AM -23.3336 -51.1301 200° South  Level Estimated
06:36AM -23.3336 -51.1301 340° North  Level Estimated
06:37AM -23.3336 -51.1301 200° South  Level Estimated
06:38AM -23.3336 -51.1301 340° North  Level Estimated
06:39AM -23.3336 -51.1301 200° South  Level Estimated
06:40AM -23.3336 -51.1301 340° North  Level Estimated
06:41AM -23.3336 -51.1301 200° South  Level Estimated